createdAt,value
2022-08-19T00:02:00.205Z,18.40
2022-08-19T00:04:32.032Z,18.40
2022-08-19T00:07:01.300Z,18.30
2022-08-19T00:09:30.388Z,18.40
2022-08-19T00:12:00.617Z,18.40
2022-08-19T00:14:32.642Z,18.30
2022-08-19T00:17:01.946Z,18.20
2022-08-19T00:19:30.554Z,18.20
2022-08-19T00:21:58.839Z,18.20
2022-08-19T00:24:29.613Z,18.20
2022-08-19T00:27:25.177Z,18.20
2022-08-19T00:29:52.585Z,18.20
2022-08-19T00:32:21.887Z,18.20
2022-08-19T00:34:50.099Z,18.10
2022-08-19T00:37:18.989Z,18.10
2022-08-19T00:39:49.175Z,18.10
2022-08-19T00:42:20.085Z,18.10
2022-08-19T00:44:48.784Z,18.00
2022-08-19T00:47:17.011Z,18.00
2022-08-19T00:49:52.490Z,18.00
2022-08-19T00:52:24.911Z,18.00
2022-08-19T00:54:54.629Z,18.00
2022-08-19T00:57:28.176Z,18.00
2022-08-19T01:00:02.696Z,17.90
2022-08-19T01:02:33.229Z,17.80
2022-08-19T01:05:03.680Z,17.80
2022-08-19T01:07:37.628Z,17.70
2022-08-19T01:10:09.556Z,17.70
2022-08-19T01:12:39.852Z,17.70
2022-08-19T01:15:11.852Z,17.70
2022-08-19T01:17:41.903Z,17.60
2022-08-19T01:20:13.497Z,17.60
2022-08-19T01:22:46.986Z,17.60
2022-08-19T01:25:16.911Z,17.70
2022-08-19T01:27:49.464Z,17.70
2022-08-19T01:30:26.255Z,17.70
2022-08-19T01:32:55.299Z,17.60
2022-08-19T01:35:25.572Z,17.60
2022-08-19T01:37:57.427Z,17.60
2022-08-19T01:40:28.679Z,17.60
2022-08-19T01:42:57.381Z,17.60
2022-08-19T01:45:29.022Z,17.60
2022-08-19T01:48:01.557Z,17.70
2022-08-19T01:50:32.045Z,17.70
2022-08-19T01:53:06.845Z,17.80
2022-08-19T01:55:40.965Z,17.80
2022-08-19T01:58:14.106Z,17.90
2022-08-19T02:00:43.842Z,17.90
2022-08-19T02:03:12.369Z,17.80
2022-08-19T02:05:41.625Z,17.90
2022-08-19T02:08:11.913Z,17.90
2022-08-19T02:10:43.242Z,17.90
2022-08-19T02:13:12.112Z,18.00
2022-08-19T02:15:40.509Z,18.00
2022-08-19T02:18:09.321Z,17.90
2022-08-19T02:20:39.411Z,18.00
2022-08-19T02:23:13.380Z,17.80
2022-08-19T02:25:45.335Z,17.80
2022-08-19T02:28:18.028Z,17.80
2022-08-19T02:30:48.159Z,17.80
2022-08-19T02:33:16.947Z,17.80
2022-08-19T02:35:45.851Z,17.80
2022-08-19T02:38:28.638Z,17.70
2022-08-19T02:41:00.750Z,17.70
2022-08-19T02:43:33.866Z,17.60
2022-08-19T02:46:03.785Z,17.60
2022-08-19T02:48:33.874Z,17.60
2022-08-19T02:51:02.317Z,17.60
2022-08-19T02:53:31.061Z,17.50
2022-08-19T02:56:00.762Z,17.50
2022-08-19T02:58:28.980Z,17.50
2022-08-19T03:00:58.977Z,17.40
2022-08-19T03:03:27.650Z,17.40
2022-08-19T03:06:06.437Z,17.40
2022-08-19T03:08:34.866Z,17.40
2022-08-19T03:11:04.989Z,17.40
2022-08-19T03:13:33.484Z,17.40
2022-08-19T03:16:01.799Z,17.30
2022-08-19T03:18:30.052Z,17.30
2022-08-19T03:20:58.451Z,17.30
2022-08-19T03:23:26.721Z,17.30
2022-08-19T03:26:02.813Z,17.30
2022-08-19T03:28:50.859Z,17.20
2022-08-19T03:31:44.856Z,17.20
2022-08-19T03:34:13.642Z,17.10
2022-08-19T03:36:42.368Z,17.10
2022-08-19T03:39:12.439Z,17.10
2022-08-19T03:41:45.545Z,17.10
2022-08-19T03:44:18.315Z,17.10
2022-08-19T03:46:49.086Z,17.00
2022-08-19T03:49:18.762Z,17.00
2022-08-19T03:51:49.633Z,16.90
2022-08-19T03:54:19.866Z,16.90
2022-08-19T03:56:50.707Z,16.90
2022-08-19T03:59:26.883Z,16.80
2022-08-19T04:01:56.014Z,16.80
2022-08-19T04:04:24.477Z,16.80
2022-08-19T04:06:53.073Z,16.80
2022-08-19T04:09:21.717Z,16.70
2022-08-19T04:11:54.702Z,16.70
2022-08-19T04:14:27.779Z,16.70
2022-08-19T04:16:56.087Z,16.70
2022-08-19T04:19:24.430Z,16.70
2022-08-19T04:21:55.066Z,16.70
2022-08-19T04:24:24.662Z,16.70
2022-08-19T04:26:53.724Z,16.60
2022-08-19T04:29:26.136Z,16.60
2022-08-19T04:31:55.779Z,16.60
2022-08-19T04:34:27.607Z,16.60
2022-08-19T04:36:58.039Z,16.60
2022-08-19T04:39:49.153Z,16.60
2022-08-19T04:42:37.140Z,16.50
2022-08-19T04:45:09.448Z,16.60
2022-08-19T04:47:47.799Z,16.60
2022-08-19T04:50:26.533Z,16.60
2022-08-19T04:52:56.459Z,16.60
2022-08-19T04:55:26.326Z,16.60
2022-08-19T04:57:54.640Z,16.50
2022-08-19T05:00:24.405Z,16.50
2022-08-19T05:02:52.785Z,16.50
2022-08-19T05:05:21.825Z,16.50
2022-08-19T05:07:50.124Z,16.40
2022-08-19T05:10:18.776Z,16.50
2022-08-19T05:12:47.099Z,16.50
2022-08-19T05:15:15.628Z,16.60
2022-08-19T05:18:05.214Z,16.60
2022-08-19T05:20:50.996Z,16.70
2022-08-19T05:23:22.725Z,16.80
2022-08-19T05:25:52.595Z,16.90
2022-08-19T05:28:22.341Z,17.00
2022-08-19T05:30:51.865Z,17.10
2022-08-19T05:33:21.564Z,17.20
2022-08-19T05:35:51.052Z,17.30
2022-08-19T05:38:19.394Z,17.40
2022-08-19T05:40:47.958Z,17.50
2022-08-19T05:43:17.475Z,17.70
2022-08-19T05:45:46.606Z,17.70
2022-08-19T05:48:15.464Z,17.80
2022-08-19T05:50:46.341Z,17.90
2022-08-19T05:53:17.347Z,17.90
2022-08-19T05:55:45.627Z,17.90
2022-08-19T05:58:14.105Z,17.90
2022-08-19T06:00:44.597Z,18.00
2022-08-19T06:03:13.192Z,18.10
2022-08-19T06:05:49.737Z,18.20
2022-08-19T06:08:33.774Z,18.20
2022-08-19T06:11:18.252Z,18.20
2022-08-19T06:13:48.517Z,18.20
2022-08-19T06:16:20.569Z,18.20
2022-08-19T06:18:49.322Z,18.20
2022-08-19T06:21:17.654Z,18.20
2022-08-19T06:23:48.279Z,18.30
2022-08-19T06:26:17.275Z,18.40
2022-08-19T06:28:47.470Z,18.50
2022-08-19T06:31:17.101Z,18.50
2022-08-19T06:33:46.680Z,18.60
2022-08-19T06:36:20.055Z,18.80
2022-08-19T06:38:49.775Z,18.90
2022-08-19T06:41:19.027Z,19.00
2022-08-19T06:43:47.596Z,19.10
2022-08-19T06:46:18.437Z,19.40
2022-08-19T06:48:47.488Z,19.40
2022-08-19T06:51:19.686Z,19.50
2022-08-19T06:56:26.723Z,19.60
2022-08-19T06:58:54.979Z,19.80
2022-08-19T07:01:23.273Z,19.90
2022-08-19T07:03:51.659Z,19.80
2022-08-19T07:09:12.275Z,19.80
2022-08-19T07:11:40.652Z,19.90
2022-08-19T07:14:19.121Z,20.00
2022-08-19T07:16:49.197Z,20.10
2022-08-19T07:19:18.809Z,20.20
2022-08-19T07:21:48.908Z,20.30
2022-08-19T07:24:19.411Z,20.50
2022-08-19T07:26:51.880Z,20.70
2022-08-19T07:29:24.247Z,20.90
2022-08-19T07:31:57.099Z,21.10
2022-08-19T07:34:26.200Z,21.60
2022-08-19T07:36:56.513Z,21.90
2022-08-19T07:39:30.651Z,22.10
2022-08-19T07:42:01.266Z,22.30
2022-08-19T07:44:29.871Z,22.50
2022-08-19T07:46:59.489Z,22.60
2022-08-19T07:49:28.214Z,22.60
2022-08-19T07:51:59.750Z,22.90
2022-08-19T07:54:32.560Z,23.30
2022-08-19T07:57:00.789Z,23.50
2022-08-19T07:59:30.210Z,23.80
2022-08-19T08:02:01.394Z,24.10
2022-08-19T08:04:47.927Z,24.20
2022-08-19T08:07:34.545Z,24.40
2022-08-19T08:10:08.553Z,24.40
2022-08-19T08:12:54.743Z,24.40
2022-08-19T08:15:42.717Z,24.50
2022-08-19T08:18:12.105Z,24.60
2022-08-19T08:20:40.933Z,24.70
2022-08-19T08:23:25.773Z,24.80
2022-08-19T08:25:57.884Z,24.80
2022-08-19T08:28:29.634Z,25.00
2022-08-19T08:31:00.319Z,24.90
2022-08-19T08:33:34.171Z,24.80
2022-08-19T08:36:04.777Z,24.70
2022-08-19T08:38:39.110Z,24.70
2022-08-19T08:41:20.736Z,24.70
2022-08-19T08:43:53.086Z,24.80
2022-08-19T08:46:31.796Z,25.00
2022-08-19T08:49:08.367Z,24.90
2022-08-19T08:54:15.331Z,25.10
2022-08-19T08:56:47.012Z,24.90
2022-08-19T08:59:22.889Z,24.80
2022-08-19T09:01:51.188Z,24.70
2022-08-19T09:04:19.959Z,24.60
2022-08-19T09:06:56.070Z,24.60
2022-08-19T09:09:33.395Z,24.60
2022-08-19T09:12:11.748Z,24.60
2022-08-19T09:14:51.560Z,24.80
2022-08-19T09:17:29.103Z,25.20
2022-08-19T09:19:59.779Z,25.50
2022-08-19T09:22:29.983Z,25.60
2022-08-19T09:24:58.471Z,25.40
2022-08-19T09:27:41.955Z,25.30
2022-08-19T09:30:14.214Z,25.40
2022-08-19T09:32:43.624Z,25.60
2022-08-19T09:35:12.314Z,25.60
2022-08-19T09:37:40.608Z,25.70
2022-08-19T09:40:12.107Z,25.60
2022-08-19T09:42:49.803Z,25.90
2022-08-19T09:45:21.864Z,26.10
2022-08-19T09:47:51.982Z,25.90
2022-08-19T09:50:23.476Z,25.90
2022-08-19T09:52:55.179Z,25.80
2022-08-19T09:55:31.701Z,25.50
2022-08-19T09:58:05.351Z,25.30
2022-08-19T10:00:33.632Z,25.30
2022-08-19T10:03:01.940Z,25.10
2022-08-19T10:05:49.957Z,25.30
2022-08-19T10:08:20.640Z,25.80
2022-08-19T10:10:51.561Z,26.50
2022-08-19T10:13:29.251Z,27.20
2022-08-19T10:15:59.460Z,27.50
2022-08-19T10:18:28.040Z,27.70
2022-08-19T10:21:09.467Z,27.90
2022-08-19T10:23:41.466Z,28.20
2022-08-19T10:26:10.077Z,28.40
2022-08-19T10:28:39.960Z,28.50
2022-08-19T10:31:13.977Z,28.50
2022-08-19T10:33:53.941Z,28.40
2022-08-19T10:36:24.476Z,28.30
2022-08-19T10:38:57.020Z,28.20
2022-08-19T10:41:29.120Z,28.30
2022-08-19T10:44:03.998Z,28.20
2022-08-19T10:46:34.200Z,28.30
2022-08-19T10:49:03.674Z,28.20
2022-08-19T10:51:50.136Z,28.10
2022-08-19T10:54:31.246Z,28.20
2022-08-19T10:57:00.683Z,28.70
2022-08-19T10:59:36.002Z,28.90
2022-08-19T11:02:07.234Z,28.70
2022-08-19T11:04:35.952Z,28.60
2022-08-19T11:07:05.705Z,28.60
2022-08-19T11:09:38.904Z,28.50
2022-08-19T11:12:08.366Z,28.40
2022-08-19T11:14:38.700Z,28.50
2022-08-19T11:17:07.920Z,28.60
2022-08-19T11:19:37.323Z,28.80
2022-08-19T11:22:05.860Z,29.00
2022-08-19T11:24:34.636Z,29.30
2022-08-19T11:27:06.699Z,29.40
2022-08-19T11:29:37.354Z,29.30
2022-08-19T11:32:08.112Z,29.20
2022-08-19T11:34:37.172Z,29.30
2022-08-19T11:37:06.659Z,29.40
2022-08-19T11:39:36.360Z,29.60
2022-08-19T11:42:26.063Z,29.60
2022-08-19T11:44:56.367Z,29.70
2022-08-19T11:47:24.977Z,29.70
2022-08-19T11:49:54.426Z,29.40
2022-08-19T11:52:22.676Z,29.50
2022-08-19T11:54:51.008Z,29.60
2022-08-19T11:57:20.645Z,29.70
2022-08-19T11:59:52.723Z,29.80
2022-08-19T12:02:22.676Z,29.60
2022-08-19T12:04:51.159Z,29.60
2022-08-19T12:07:19.395Z,29.40
2022-08-19T12:09:48.638Z,29.30
2022-08-19T12:12:17.288Z,29.10
2022-08-19T12:14:47.403Z,28.90
2022-08-19T12:17:15.619Z,28.70
2022-08-19T12:19:45.399Z,28.40
2022-08-19T12:22:13.713Z,28.40
2022-08-19T12:24:41.915Z,28.20
2022-08-19T12:27:12.841Z,28.00
2022-08-19T12:29:42.464Z,27.90
2022-08-19T12:32:12.192Z,27.90
2022-08-19T12:34:41.080Z,27.90
2022-08-19T12:37:11.906Z,27.70
2022-08-19T12:39:42.713Z,27.60
2022-08-19T12:42:12.080Z,27.60
2022-08-19T12:44:42.694Z,27.60
2022-08-19T12:47:12.509Z,27.60
2022-08-19T12:49:54.514Z,27.80
2022-08-19T12:52:28.043Z,28.10
2022-08-19T12:54:58.167Z,28.30
2022-08-19T12:57:32.897Z,28.20
2022-08-19T13:00:04.961Z,28.10
2022-08-19T13:02:38.930Z,28.20
2022-08-19T13:05:12.129Z,28.40
2022-08-19T13:07:44.712Z,28.40
2022-08-19T13:10:16.256Z,28.80
2022-08-19T13:12:45.235Z,29.10
2022-08-19T13:15:15.211Z,29.10
2022-08-19T13:17:43.603Z,29.00
2022-08-19T13:20:13.361Z,29.00
2022-08-19T13:22:43.297Z,29.10
2022-08-19T13:25:12.018Z,29.30
2022-08-19T13:27:41.686Z,29.30
2022-08-19T13:30:30.703Z,29.40
2022-08-19T13:33:21.623Z,29.60
2022-08-19T13:35:52.779Z,29.70
2022-08-19T13:38:24.104Z,29.70
2022-08-19T13:40:54.784Z,29.80
2022-08-19T13:43:25.265Z,29.80
2022-08-19T13:45:56.253Z,29.80
2022-08-19T13:48:27.261Z,29.90
2022-08-19T13:50:56.111Z,29.90
2022-08-19T13:53:25.856Z,29.90
2022-08-19T13:55:54.928Z,29.90
2022-08-19T13:58:24.271Z,29.70
2022-08-19T14:00:52.679Z,29.60
2022-08-19T14:03:20.955Z,29.60
2022-08-19T14:05:49.374Z,29.60
2022-08-19T14:08:17.640Z,29.50
2022-08-19T14:10:47.727Z,29.50
2022-08-19T14:13:18.857Z,29.20
2022-08-19T14:15:48.218Z,29.20
2022-08-19T14:18:17.478Z,29.40
2022-08-19T14:20:46.427Z,29.70
2022-08-19T14:23:14.786Z,29.90
2022-08-19T14:25:43.092Z,29.90
2022-08-19T14:28:12.798Z,29.90
2022-08-19T14:30:41.376Z,29.90
2022-08-19T14:33:10.244Z,29.70
2022-08-19T14:35:39.640Z,29.80
2022-08-19T14:38:16.682Z,30.20
2022-08-19T14:40:45.028Z,30.40
2022-08-19T14:43:14.668Z,30.30
2022-08-19T14:45:46.635Z,30.10
2022-08-19T14:48:19.335Z,30.00
2022-08-19T14:50:48.821Z,29.90
2022-08-19T14:53:18.718Z,29.90
2022-08-19T14:55:48.615Z,29.80
2022-08-19T14:58:29.148Z,29.60
2022-08-19T15:01:01.028Z,29.40
2022-08-19T15:03:30.049Z,29.10
2022-08-19T15:05:58.928Z,28.70
2022-08-19T15:08:28.887Z,28.40
2022-08-19T15:10:57.644Z,28.30
2022-08-19T15:13:31.032Z,28.10
2022-08-19T15:15:59.675Z,28.00
2022-08-19T15:18:28.039Z,27.90
2022-08-19T15:20:57.130Z,27.60
2022-08-19T15:23:25.418Z,27.50
2022-08-19T15:25:55.811Z,27.30
2022-08-19T15:28:25.600Z,27.20
2022-08-19T15:30:55.478Z,26.70
2022-08-19T15:33:23.743Z,26.30
2022-08-19T15:35:52.618Z,26.10
2022-08-19T15:38:22.105Z,26.10
2022-08-19T15:40:51.704Z,26.10
2022-08-19T15:43:22.297Z,26.10
2022-08-19T15:45:50.560Z,26.10
2022-08-19T15:48:21.172Z,26.00
2022-08-19T15:50:49.436Z,25.90
2022-08-19T15:53:17.699Z,25.80
2022-08-19T15:55:48.535Z,25.80
2022-08-19T15:58:34.259Z,25.80
2022-08-19T16:01:24.113Z,25.90
2022-08-19T16:04:14.891Z,25.90
2022-08-19T16:06:46.314Z,25.70
2022-08-19T16:09:15.603Z,25.80
2022-08-19T16:11:45.781Z,25.80
2022-08-19T16:14:15.373Z,25.70
2022-08-19T16:16:46.598Z,25.70
2022-08-19T16:19:18.168Z,25.80
2022-08-19T16:21:49.988Z,26.00
2022-08-19T16:24:20.655Z,26.40
2022-08-19T16:26:49.442Z,26.60
2022-08-19T16:29:25.819Z,27.00
2022-08-19T16:32:03.066Z,27.20
2022-08-19T16:34:33.851Z,27.40
2022-08-19T16:37:02.958Z,27.50
2022-08-19T16:39:32.454Z,27.40
2022-08-19T16:42:01.200Z,27.20
2022-08-19T16:44:30.150Z,27.10
2022-08-19T16:46:59.749Z,26.80
2022-08-19T16:49:55.289Z,26.60
2022-08-19T16:52:20.087Z,26.50
2022-08-19T16:54:49.767Z,26.50
2022-08-19T16:57:18.427Z,26.50
2022-08-19T16:59:48.915Z,26.60
2022-08-19T17:02:18.854Z,26.60
2022-08-19T17:04:57.991Z,26.70
2022-08-19T17:07:33.286Z,26.90
2022-08-19T17:10:03.417Z,27.00
2022-08-19T17:12:32.608Z,27.10
2022-08-19T17:15:02.957Z,27.10
2022-08-19T17:17:32.401Z,27.10
2022-08-19T17:20:02.542Z,27.10
2022-08-19T17:22:32.127Z,26.90
2022-08-19T17:25:00.333Z,26.70
2022-08-19T17:27:32.413Z,26.70
2022-08-19T17:30:02.919Z,26.80
2022-08-19T17:32:35.039Z,26.80
2022-08-19T17:35:04.724Z,26.80
2022-08-19T17:37:34.972Z,26.70
2022-08-19T17:40:03.841Z,26.40
2022-08-19T17:42:32.379Z,26.30
2022-08-19T17:45:01.036Z,26.30
2022-08-19T17:47:29.616Z,26.10
2022-08-19T17:49:59.243Z,26.00
2022-08-19T17:52:27.892Z,25.80
2022-08-19T17:54:57.515Z,25.70
2022-08-19T17:57:26.056Z,25.50
2022-08-19T17:59:55.360Z,25.40
2022-08-19T18:02:25.303Z,25.20
2022-08-19T18:04:53.664Z,25.00
2022-08-19T18:07:22.343Z,24.90
2022-08-19T18:09:52.645Z,24.70
2022-08-19T18:12:26.476Z,24.60
2022-08-19T18:14:54.777Z,24.50
2022-08-19T18:17:23.386Z,24.50
2022-08-19T18:19:51.776Z,24.50
2022-08-19T18:22:26.882Z,24.40
2022-08-19T18:24:56.115Z,24.30
2022-08-19T18:27:26.177Z,24.20
2022-08-19T18:29:59.473Z,24.20
2022-08-19T18:32:33.065Z,24.10
2022-08-19T18:35:02.707Z,24.10
2022-08-19T18:37:30.954Z,24.10
2022-08-19T18:40:16.614Z,24.10
2022-08-19T18:43:05.129Z,24.10
2022-08-19T18:45:51.059Z,24.00
2022-08-19T18:48:36.611Z,23.90
2022-08-19T18:51:05.384Z,23.90
2022-08-19T18:53:37.847Z,23.80
2022-08-19T18:56:08.001Z,23.80
2022-08-19T18:58:39.223Z,23.80
2022-08-19T19:01:11.925Z,23.90
2022-08-19T19:03:45.225Z,23.90
2022-08-19T19:06:14.884Z,23.80
2022-08-19T19:08:43.350Z,23.80
2022-08-19T19:11:11.683Z,23.80
2022-08-19T19:13:41.469Z,23.70
2022-08-19T19:16:11.510Z,23.70
2022-08-19T19:18:39.935Z,23.70
2022-08-19T19:21:09.041Z,23.70
2022-08-19T19:23:40.546Z,23.60
2022-08-19T19:26:10.522Z,23.60
2022-08-19T19:28:43.808Z,23.70
2022-08-19T19:31:14.798Z,23.70
2022-08-19T19:33:44.373Z,23.70
2022-08-19T19:36:13.294Z,23.70
2022-08-19T19:38:48.321Z,23.60
2022-08-19T19:41:20.210Z,23.60
2022-08-19T19:43:59.906Z,23.50
2022-08-19T19:46:39.626Z,23.40
2022-08-19T19:49:08.078Z,23.40
2022-08-19T19:51:39.481Z,23.40
2022-08-19T19:54:13.524Z,23.40
2022-08-19T19:56:45.386Z,23.30
2022-08-19T19:59:15.280Z,23.30
2022-08-19T20:01:45.943Z,23.30
2022-08-19T20:04:14.353Z,23.30
2022-08-19T20:06:44.701Z,23.30
2022-08-19T20:09:15.170Z,23.20
2022-08-19T20:11:49.743Z,23.10
2022-08-19T20:14:25.628Z,23.10
2022-08-19T20:16:55.243Z,23.00
2022-08-19T20:19:27.093Z,23.00
2022-08-19T20:21:57.408Z,22.90
2022-08-19T20:24:28.409Z,22.80
2022-08-19T20:26:58.400Z,22.70
2022-08-19T20:29:39.300Z,22.60
2022-08-19T20:32:09.892Z,22.60
2022-08-19T20:34:38.271Z,22.60
2022-08-19T20:37:09.105Z,22.50
2022-08-19T20:39:37.852Z,22.50
2022-08-19T20:42:06.490Z,22.50
2022-08-19T20:44:37.569Z,22.40
2022-08-19T20:47:06.255Z,22.40
2022-08-19T20:49:35.185Z,22.40
2022-08-19T20:52:05.069Z,22.40
2022-08-19T20:54:33.848Z,22.40
2022-08-19T20:57:03.600Z,22.40
2022-08-19T20:59:32.023Z,22.40
2022-08-19T21:02:01.616Z,22.40
2022-08-19T21:04:29.863Z,22.30
2022-08-19T21:06:58.298Z,22.20
2022-08-19T21:09:26.611Z,22.20
2022-08-19T21:11:54.904Z,22.30
2022-08-19T21:14:23.802Z,22.30
2022-08-19T21:16:52.067Z,22.30
2022-08-19T21:19:24.040Z,22.30
2022-08-19T21:21:53.238Z,22.30
2022-08-19T21:24:21.595Z,22.30
2022-08-19T21:26:54.561Z,22.30
2022-08-19T21:29:22.967Z,22.30
2022-08-19T21:31:51.447Z,22.20
2022-08-19T21:34:21.196Z,22.20
2022-08-19T21:36:49.443Z,22.10
2022-08-19T21:39:17.627Z,22.10
2022-08-19T21:41:46.053Z,22.00
2022-08-19T21:44:14.274Z,22.10
2022-08-19T21:46:42.530Z,22.00
2022-08-19T21:49:10.796Z,22.00
2022-08-19T21:51:40.622Z,21.90
2022-08-19T21:54:08.931Z,21.90
2022-08-19T21:56:42.928Z,21.80
2022-08-19T21:59:11.385Z,21.80
2022-08-19T22:01:39.657Z,21.70
2022-08-19T22:04:07.977Z,21.70
2022-08-19T22:06:36.425Z,21.60
2022-08-19T22:09:06.056Z,21.60
2022-08-19T22:11:34.558Z,21.60
2022-08-19T22:14:04.310Z,21.60
2022-08-19T22:16:33.672Z,21.50
2022-08-19T22:19:01.923Z,21.60
2022-08-19T22:21:40.491Z,21.50
2022-08-19T22:24:11.158Z,21.50
2022-08-19T22:26:39.486Z,21.50
2022-08-19T22:29:11.639Z,21.50
2022-08-19T22:31:44.324Z,21.50
2022-08-19T22:34:12.664Z,21.50
2022-08-19T22:36:40.889Z,21.50
2022-08-19T22:39:10.431Z,21.60
2022-08-19T22:41:40.680Z,21.60
2022-08-19T22:44:11.487Z,21.60
2022-08-19T22:46:39.888Z,21.60
2022-08-19T22:49:09.220Z,21.60
2022-08-19T22:51:55.134Z,21.50
2022-08-19T22:54:24.735Z,21.60
2022-08-19T22:56:53.381Z,21.60
2022-08-19T22:59:22.345Z,21.60
2022-08-19T23:01:50.783Z,21.50
2022-08-19T23:04:19.022Z,21.50
2022-08-19T23:06:48.379Z,21.50
2022-08-19T23:09:17.103Z,21.50
2022-08-19T23:11:48.223Z,21.50
2022-08-19T23:14:17.605Z,21.40
2022-08-19T23:16:50.799Z,21.40
2022-08-19T23:19:20.554Z,21.30
2022-08-19T23:21:49.255Z,21.30
2022-08-19T23:24:17.437Z,21.30
2022-08-19T23:27:00.996Z,21.30
2022-08-19T23:29:47.293Z,21.30
2022-08-19T23:32:17.588Z,21.30
2022-08-19T23:34:46.111Z,21.30
2022-08-19T23:37:14.651Z,21.30
2022-08-19T23:39:43.570Z,21.30
2022-08-19T23:42:14.992Z,21.30
2022-08-19T23:44:51.841Z,21.30
2022-08-19T23:47:21.857Z,21.30
2022-08-19T23:49:51.136Z,21.20
2022-08-19T23:52:19.668Z,21.30
2022-08-19T23:54:47.952Z,21.20
2022-08-19T23:57:17.655Z,21.20
2022-08-19T23:59:46.300Z,21.10
